Time;durP1;ratioP1;P1;durP2;ratioP2;P2;SDS_P1;SDS_P2;PMS_P1;PMS_P2;Temp;Humidity;BMP_temperature;BMP_pressure;BME280_temperature;BME280_humidity;BME280_pressure;Samples;Min_cycle;Max_cycle;Signal;HPM_P1;HPM_P2
2021/04/30 00:00:24;;;;;;;;;;;5.60;99.90;;;;;;5048043;28;19940;-70
2021/04/30 00:02:49;;;;;;;;;;;5.70;99.90;;;;;;5048615;28;19925;-70
2021/04/30 00:05:15;;;;;;;;;;;5.70;99.90;;;;;;5030308;28;19916;-68
2021/04/30 00:07:40;;;;;;;;;;;5.70;99.90;;;;;;5030350;28;19928;-70
2021/04/30 00:10:08;;;;;;;;;;;5.70;99.90;;;;;;5049306;28;20277;-70
2021/04/30 00:12:34;;;;;;;;;;;5.70;99.90;;;;;;5049580;28;19916;-70
2021/04/30 00:15:03;;;;;;;;;;;5.70;99.90;;;;;;5049560;28;19931;-70
2021/04/30 00:17:28;;;;;;;;;;;5.60;99.90;;;;;;5029880;28;19996;-70
2021/04/30 00:19:54;;;;;;;;;;;5.60;99.90;;;;;;5031405;28;19985;-70
2021/04/30 00:22:19;;;;;;;;;;;5.70;99.90;;;;;;5048215;28;19925;-70
2021/04/30 00:24:47;;;;;;;;;;;5.60;99.90;;;;;;5047995;28;19928;-70
2021/04/30 00:27:13;;;;;;;;;;;5.50;99.90;;;;;;5046096;28;19913;-70
2021/04/30 00:29:40;;;;;;;;;;;5.50;99.90;;;;;;5048108;28;19916;-70
2021/04/30 00:32:06;;;;;;;;;;;5.30;99.90;;;;;;5030506;28;20349;-70
2021/04/30 00:34:34;;;;;;;;;;;5.40;99.90;;;;;;5047592;28;19947;-70
2021/04/30 00:36:59;;;;;;;;;;;5.30;99.90;;;;;;5051234;28;19960;-70
2021/04/30 00:39:25;;;;;;;;;;;5.40;99.90;;;;;;5049228;28;20016;-70
2021/04/30 00:41:50;;;;;;;;;;;5.30;99.90;;;;;;5048645;28;19916;-70
2021/04/30 00:44:16;;;;;;;;;;;5.30;99.90;;;;;;5048521;28;20402;-70
2021/04/30 00:46:41;;;;;;;;;;;5.30;99.90;;;;;;5049329;28;20019;-70
2021/04/30 00:49:07;;;;;;;;;;;5.20;99.90;;;;;;5048289;28;19944;-70
2021/04/30 00:51:32;;;;;;;;;;;5.20;99.90;;;;;;5048611;28;19928;-68
2021/04/30 00:53:58;;;;;;;;;;;5.20;99.90;;;;;;5048203;28;19916;-70
2021/04/30 00:56:24;;;;;;;;;;;5.10;99.90;;;;;;5049697;28;20354;-70
2021/04/30 00:58:49;;;;;;;;;;;5.20;99.90;;;;;;5028465;28;19917;-70
2021/04/30 01:01:15;;;;;;;;;;;5.10;99.90;;;;;;5029272;28;19920;-70
2021/04/30 01:03:44;;;;;;;;;;;5.00;99.90;;;;;;5014911;28;19920;-70
2021/04/30 01:06:09;;;;;;;;;;;5.10;99.90;;;;;;5047752;28;20247;-70
2021/04/30 01:08:37;;;;;;;;;;;5.10;99.90;;;;;;5048478;28;19960;-70
2021/04/30 01:11:05;;;;;;;;;;;5.00;99.90;;;;;;5048660;28;19920;-70
2021/04/30 01:13:30;;;;;;;;;;;5.00;99.90;;;;;;5029838;28;19921;-68
2021/04/30 01:15:56;;;;;;;;;;;5.00;99.90;;;;;;5048356;28;20380;-70
2021/04/30 01:18:21;;;;;;;;;;;5.00;99.90;;;;;;5028332;28;20358;-70
2021/04/30 01:20:47;;;;;;;;;;;5.00;99.90;;;;;;5047727;28;20007;-68
2021/04/30 01:23:12;;;;;;;;;;;4.90;99.90;;;;;;5049328;28;19921;-70
2021/04/30 01:25:38;;;;;;;;;;;4.90;99.90;;;;;;5047312;28;19913;-70
2021/04/30 01:28:07;;;;;;;;;;;4.90;99.90;;;;;;5046526;28;20378;-70
2021/04/30 01:30:33;;;;;;;;;;;4.80;99.90;;;;;;5046973;28;19916;-68
2021/04/30 01:32:59;;;;;;;;;;;4.90;99.90;;;;;;5047021;28;19913;-70
2021/04/30 01:35:28;;;;;;;;;;;4.80;99.90;;;;;;5026453;28;19925;-70
2021/04/30 01:37:54;;;;;;;;;;;4.80;99.90;;;;;;5047091;28;20595;-70
2021/04/30 01:40:20;;;;;;;;;;;4.80;99.90;;;;;;5045945;28;19917;-70
2021/04/30 01:42:56;;;;;;;;;;;4.70;99.90;;;;;;5045974;28;19925;-70
2021/04/30 01:45:21;;;;;;;;;;;4.70;99.90;;;;;;5046296;28;21683;-70
2021/04/30 01:47:47;;;;;;;;;;;4.70;99.90;;;;;;5047645;28;19924;-70
2021/04/30 01:50:12;;;;;;;;;;;4.70;99.90;;;;;;5047615;28;20775;-68
2021/04/30 01:52:40;;;;;;;;;;;4.70;99.90;;;;;;5027139;28;19917;-70
2021/04/30 01:55:06;;;;;;;;;;;4.60;99.90;;;;;;5047353;28;20039;-70
2021/04/30 01:57:34;;;;;;;;;;;4.60;99.90;;;;;;5046650;28;19927;-70
2021/04/30 01:59:59;;;;;;;;;;;4.60;99.90;;;;;;5046247;28;19949;-70
2021/04/30 02:02:25;;;;;;;;;;;4.60;99.90;;;;;;5046662;28;20401;-70
2021/04/30 02:04:50;;;;;;;;;;;4.40;99.90;;;;;;5028812;28;20328;-70
2021/04/30 02:07:16;;;;;;;;;;;4.50;99.90;;;;;;5018473;28;19929;-70
2021/04/30 02:09:41;;;;;;;;;;;4.50;99.90;;;;;;5005837;28;19917;-70
2021/04/30 02:12:08;;;;;;;;;;;4.50;99.90;;;;;;5010717;28;20347;-70
2021/04/30 02:14:33;;;;;;;;;;;4.40;99.90;;;;;;5010433;28;19913;-70
2021/04/30 02:16:59;;;;;;;;;;;4.40;99.90;;;;;;5009445;28;20255;-70
2021/04/30 02:19:24;;;;;;;;;;;4.40;99.90;;;;;;5011317;28;19929;-70
2021/04/30 02:21:50;;;;;;;;;;;4.40;99.90;;;;;;5010191;28;19917;-71
2021/04/30 02:24:15;;;;;;;;;;;4.40;99.90;;;;;;5011148;28;19960;-68
2021/04/30 02:26:43;;;;;;;;;;;4.40;99.90;;;;;;5010475;28;19917;-69
2021/04/30 02:29:09;;;;;;;;;;;4.30;99.90;;;;;;5008302;28;20020;-70
2021/04/30 02:31:37;;;;;;;;;;;4.40;99.90;;;;;;5008406;28;19932;-70
2021/04/30 02:34:05;;;;;;;;;;;4.30;99.90;;;;;;5010644;28;20323;-69
2021/04/30 02:36:32;;;;;;;;;;;4.30;99.90;;;;;;5009346;28;20007;-69
2021/04/30 02:38:58;;;;;;;;;;;4.30;99.90;;;;;;5011167;28;19928;-70
2021/04/30 02:41:26;;;;;;;;;;;4.30;99.90;;;;;;5026010;28;19917;-70
2021/04/30 02:43:53;;;;;;;;;;;4.30;99.90;;;;;;5011369;28;20329;-70
2021/04/30 02:46:19;;;;;;;;;;;4.20;99.90;;;;;;5011436;28;19922;-70
2021/04/30 02:48:47;;;;;;;;;;;4.20;99.90;;;;;;5009507;28;19947;-69
2021/04/30 02:51:15;;;;;;;;;;;4.20;99.90;;;;;;5010594;28;20489;-70
2021/04/30 02:53:42;;;;;;;;;;;4.20;99.90;;;;;;5009976;28;19921;-70
2021/04/30 02:56:07;;;;;;;;;;;4.10;99.90;;;;;;5009194;28;19985;-70
2021/04/30 02:58:33;;;;;;;;;;;4.10;99.90;;;;;;5009285;28;20004;-70
2021/04/30 03:00:59;;;;;;;;;;;4.10;99.90;;;;;;5010203;28;20015;-70
2021/04/30 03:03:25;;;;;;;;;;;4.10;99.90;;;;;;5025070;28;20457;-70
2021/04/30 03:05:50;;;;;;;;;;;4.00;99.90;;;;;;5008689;28;19917;-70
2021/04/30 03:08:18;;;;;;;;;;;4.00;99.90;;;;;;5008047;28;19941;-70
2021/04/30 03:10:44;;;;;;;;;;;4.00;99.90;;;;;;5009600;28;20022;-70
2021/04/30 03:13:12;;;;;;;;;;;4.00;99.90;;;;;;5007611;28;19927;-70
2021/04/30 03:15:37;;;;;;;;;;;3.90;99.90;;;;;;5010622;28;19921;-71
2021/04/30 03:18:05;;;;;;;;;;;3.90;99.90;;;;;;5008740;28;19924;-70
2021/04/30 03:20:31;;;;;;;;;;;3.90;99.90;;;;;;5007417;28;19944;-70
2021/04/30 03:22:59;;;;;;;;;;;3.80;99.90;;;;;;5007592;28;20363;-70
2021/04/30 03:25:24;;;;;;;;;;;3.80;99.90;;;;;;5009367;28;19925;-70
2021/04/30 03:27:50;;;;;;;;;;;3.50;99.90;;;;;;5010072;28;21813;-70
2021/04/30 03:30:16;;;;;;;;;;;3.60;99.90;;;;;;5008414;28;19928;-69
2021/04/30 03:32:41;;;;;;;;;;;3.40;99.90;;;;;;5009211;28;19921;-69
2021/04/30 03:35:07;;;;;;;;;;;3.50;99.90;;;;;;5009422;28;20389;-70
2021/04/30 03:37:33;;;;;;;;;;;3.50;99.90;;;;;;5007500;28;19922;-69
2021/04/30 03:39:58;;;;;;;;;;;3.50;99.90;;;;;;5008512;28;20077;-69
2021/04/30 03:42:24;;;;;;;;;;;3.40;99.90;;;;;;4992182;28;19921;-70
2021/04/30 03:44:49;;;;;;;;;;;3.40;99.90;;;;;;5007989;28;19978;-69
2021/04/30 03:47:15;;;;;;;;;;;3.20;99.90;;;;;;5024580;28;19921;-69
2021/04/30 03:49:45;;;;;;;;;;;3.20;99.90;;;;;;5007735;28;20420;-70
2021/04/30 03:52:11;;;;;;;;;;;3.30;99.90;;;;;;5008724;28;20382;-69
2021/04/30 03:54:36;;;;;;;;;;;3.20;99.90;;;;;;5007848;28;19972;-69
2021/04/30 03:57:02;;;;;;;;;;;3.20;99.90;;;;;;5006906;28;19921;-69
2021/04/30 03:59:27;;;;;;;;;;;3.10;99.90;;;;;;5026214;28;19917;-69
2021/04/30 04:01:53;;;;;;;;;;;3.10;99.90;;;;;;5009469;28;20531;-69
2021/04/30 04:04:18;;;;;;;;;;;3.20;99.90;;;;;;4992485;28;19917;-69
2021/04/30 04:06:46;;;;;;;;;;;3.00;99.90;;;;;;5013382;28;20016;-69
2021/04/30 04:09:14;;;;;;;;;;;2.90;99.90;;;;;;5046526;28;19920;-69
2021/04/30 04:11:41;;;;;;;;;;;2.90;99.90;;;;;;5031208;28;19930;-69
2021/04/30 04:14:06;;;;;;;;;;;2.90;99.90;;;;;;5047214;28;19935;-69
2021/04/30 04:16:32;;;;;;;;;;;3.00;99.90;;;;;;5030059;28;19920;-69
2021/04/30 04:18:57;;;;;;;;;;;3.00;99.90;;;;;;5047935;28;20006;-70
2021/04/30 04:21:25;;;;;;;;;;;3.00;99.90;;;;;;5048533;28;19917;-69
2021/04/30 04:23:51;;;;;;;;;;;3.10;99.90;;;;;;5047531;28;20360;-70
2021/04/30 04:26:17;;;;;;;;;;;3.10;99.90;;;;;;5048339;28;19924;-69
2021/04/30 04:28:42;;;;;;;;;;;3.10;99.90;;;;;;5048386;28;19921;-69
2021/04/30 04:31:08;;;;;;;;;;;3.10;99.90;;;;;;5047638;28;19939;-69
2021/04/30 04:33:33;;;;;;;;;;;3.00;99.90;;;;;;5048471;28;19967;-69
2021/04/30 04:35:59;;;;;;;;;;;3.10;99.90;;;;;;5028446;28;19978;-69
2021/04/30 04:38:27;;;;;;;;;;;3.10;99.90;;;;;;5048758;28;19921;-70
2021/04/30 04:40:56;;;;;;;;;;;3.10;99.90;;;;;;5049096;28;19917;-69
2021/04/30 04:43:21;;;;;;;;;;;3.10;99.90;;;;;;5048085;28;21769;-70
2021/04/30 04:45:47;;;;;;;;;;;3.10;99.90;;;;;;5028837;28;19997;-69
2021/04/30 04:48:12;;;;;;;;;;;3.00;99.90;;;;;;5047460;28;19935;-70
2021/04/30 04:50:38;;;;;;;;;;;3.10;99.90;;;;;;5048291;28;19916;-70
2021/04/30 04:53:06;;;;;;;;;;;3.10;99.90;;;;;;5029410;28;19960;-70
2021/04/30 04:55:31;;;;;;;;;;;3.10;99.90;;;;;;5030366;28;20000;-70
2021/04/30 04:57:59;;;;;;;;;;;3.00;99.90;;;;;;5029129;28;20015;-70
2021/04/30 05:00:25;;;;;;;;;;;3.10;99.90;;;;;;5046684;28;19983;-70
2021/04/30 05:02:51;;;;;;;;;;;3.10;99.90;;;;;;5047518;28;20493;-69
2021/04/30 05:05:16;;;;;;;;;;;3.10;99.90;;;;;;5048430;28;20013;-70
2021/04/30 05:07:42;;;;;;;;;;;3.10;99.90;;;;;;5014594;28;20001;-69
2021/04/30 05:10:07;;;;;;;;;;;3.20;99.90;;;;;;5047411;28;19943;-69
2021/04/30 05:12:35;;;;;;;;;;;3.20;99.90;;;;;;5047129;28;19924;-70
2021/04/30 05:15:01;;;;;;;;;;;3.20;99.90;;;;;;5029010;28;19917;-70
2021/04/30 05:17:26;;;;;;;;;;;3.20;99.90;;;;;;5047482;28;20681;-70
2021/04/30 05:19:52;;;;;;;;;;;3.20;99.90;;;;;;5047776;28;19920;-70
2021/04/30 05:22:17;;;;;;;;;;;3.30;99.90;;;;;;5029862;28;19924;-69
2021/04/30 05:24:43;;;;;;;;;;;3.30;99.90;;;;;;5047160;28;20011;-70
2021/04/30 05:27:11;;;;;;;;;;;3.40;99.90;;;;;;5046877;28;20497;-69
2021/04/30 05:29:40;;;;;;;;;;;3.40;99.90;;;;;;5046579;28;19917;-69
2021/04/30 05:32:06;;;;;;;;;;;3.40;99.90;;;;;;5047900;28;19982;-69
2021/04/30 05:34:31;;;;;;;;;;;3.50;99.90;;;;;;5047054;28;20530;-70
2021/04/30 05:36:57;;;;;;;;;;;3.50;99.90;;;;;;5047743;28;20027;-70
2021/04/30 05:39:27;;;;;;;;;;;3.50;99.90;;;;;;5046744;28;19971;-70
2021/04/30 05:41:53;;;;;;;;;;;3.60;99.90;;;;;;5027733;28;19943;-70
2021/04/30 05:44:18;;;;;;;;;;;3.60;99.90;;;;;;5047765;28;20007;-70
2021/04/30 05:46:46;;;;;;;;;;;3.70;99.90;;;;;;5032701;28;19932;-70
2021/04/30 05:49:12;;;;;;;;;;;3.70;99.90;;;;;;5050062;28;19916;-70
2021/04/30 05:51:38;;;;;;;;;;;3.80;99.90;;;;;;5051698;28;19935;-73
2021/04/30 05:54:03;;;;;;;;;;;3.80;99.90;;;;;;5051709;28;19917;-73
2021/04/30 05:56:31;;;;;;;;;;;3.90;99.90;;;;;;5034227;28;19930;-70
2021/04/30 05:58:59;;;;;;;;;;;4.00;99.90;;;;;;5032009;28;20270;-70
2021/04/30 06:01:25;;;;;;;;;;;4.00;99.90;;;;;;5032252;28;19920;-70
2021/04/30 06:03:50;;;;;;;;;;;4.10;99.90;;;;;;5031725;28;19966;-70
2021/04/30 06:06:16;;;;;;;;;;;4.10;99.90;;;;;;5051498;28;19967;-70
2021/04/30 06:08:41;;;;;;;;;;;4.20;99.90;;;;;;5032282;28;20384;-70
2021/04/30 06:11:07;;;;;;;;;;;4.30;99.90;;;;;;5050333;28;21785;-70
2021/04/30 06:13:32;;;;;;;;;;;4.40;99.90;;;;;;5050190;28;19955;-70
2021/04/30 06:16:00;;;;;;;;;;;4.40;99.90;;;;;;5032804;28;19925;-70
2021/04/30 06:18:28;;;;;;;;;;;4.50;99.90;;;;;;5049629;28;19932;-70
2021/04/30 06:20:53;;;;;;;;;;;4.60;99.90;;;;;;5049804;28;20350;-69
2021/04/30 06:23:19;;;;;;;;;;;4.70;99.90;;;;;;5051211;28;19932;-70
2021/04/30 06:25:44;;;;;;;;;;;4.80;99.90;;;;;;5049589;28;19916;-70
2021/04/30 06:28:12;;;;;;;;;;;4.90;99.90;;;;;;5048919;28;19971;-70
2021/04/30 06:30:38;;;;;;;;;;;5.10;99.90;;;;;;5050473;28;19928;-69
2021/04/30 06:33:09;;;;;;;;;;;5.10;99.90;;;;;;5033324;28;19917;-70
2021/04/30 06:35:35;;;;;;;;;;;5.20;99.90;;;;;;5029456;28;19956;-69
2021/04/30 06:38:05;;;;;;;;;;;5.40;99.90;;;;;;5048879;28;20329;-70
2021/04/30 06:40:31;;;;;;;;;;;5.50;99.90;;;;;;5031955;28;19917;-70
2021/04/30 06:42:59;;;;;;;;;;;5.60;99.90;;;;;;5032058;28;19932;-70
2021/04/30 06:45:26;;;;;;;;;;;5.80;99.90;;;;;;5046532;28;20031;-70
2021/04/30 06:47:52;;;;;;;;;;;5.90;99.90;;;;;;5046246;28;19927;-70
2021/04/30 06:50:17;;;;;;;;;;;6.00;99.90;;;;;;5046364;28;19929;-71
2021/04/30 06:52:43;;;;;;;;;;;6.10;99.90;;;;;;5045760;28;21691;-70
2021/04/30 06:55:11;;;;;;;;;;;6.30;99.90;;;;;;5044756;28;20047;-70
2021/04/30 06:57:41;;;;;;;;;;;6.40;99.90;;;;;;5028703;28;20391;-71
2021/04/30 07:00:07;;;;;;;;;;;6.60;99.90;;;;;;5030537;28;20400;-70
2021/04/30 07:02:35;;;;;;;;;;;6.70;99.90;;;;;;5047373;28;19972;-70
2021/04/30 07:05:01;;;;;;;;;;;6.70;99.90;;;;;;5021580;28;19916;-70
2021/04/30 07:07:26;;;;;;;;;;;6.90;99.90;;;;;;5017624;28;20318;-70
2021/04/30 07:09:52;;;;;;;;;;;6.90;99.90;;;;;;5006054;28;20011;-70
2021/04/30 07:12:20;;;;;;;;;;;7.10;99.90;;;;;;4992631;28;19978;-70
2021/04/30 07:14:46;;;;;;;;;;;7.10;99.90;;;;;;5005705;28;19921;-70
2021/04/30 07:17:11;;;;;;;;;;;7.20;99.90;;;;;;5004085;28;19929;-70
2021/04/30 07:19:37;;;;;;;;;;;7.30;99.90;;;;;;5005271;28;19917;-70
2021/04/30 07:22:02;;;;;;;;;;;7.40;99.90;;;;;;5005207;28;19921;-70
2021/04/30 07:24:30;;;;;;;;;;;7.50;99.90;;;;;;5005224;28;19918;-70
2021/04/30 07:26:58;;;;;;;;;;;7.50;99.90;;;;;;5005297;28;19963;-70
2021/04/30 07:29:25;;;;;;;;;;;7.50;99.90;;;;;;5020532;28;19952;-70
2021/04/30 07:31:50;;;;;;;;;;;7.60;99.90;;;;;;5005526;28;19917;-70
2021/04/30 07:34:16;;;;;;;;;;;7.60;99.90;;;;;;5005135;28;19917;-70
2021/04/30 07:36:41;;;;;;;;;;;7.70;99.90;;;;;;5005820;28;19932;-70
2021/04/30 07:39:10;;;;;;;;;;;7.80;99.90;;;;;;5004454;28;20367;-70
2021/04/30 07:41:35;;;;;;;;;;;7.90;99.90;;;;;;5005600;28;20615;-71
2021/04/30 07:44:01;;;;;;;;;;;8.00;99.90;;;;;;5002443;28;19928;-70
2021/04/30 07:46:26;;;;;;;;;;;8.10;99.90;;;;;;5004486;28;19921;-70
2021/04/30 07:48:52;;;;;;;;;;;8.10;99.90;;;;;;5005510;28;19928;-70
2021/04/30 07:51:20;;;;;;;;;;;8.20;99.90;;;;;;5007415;28;19979;-70
2021/04/30 07:53:45;;;;;;;;;;;8.30;99.90;;;;;;5003981;28;19953;-69
2021/04/30 07:56:12;;;;;;;;;;;8.30;93.50;;;;;;5004844;28;20004;-69
2021/04/30 07:58:38;;;;;;;;;;;8.40;99.90;;;;;;5005361;28;19944;-69
2021/04/30 08:01:03;;;;;;;;;;;8.50;94.40;;;;;;5003363;28;20477;-70
2021/04/30 08:03:31;;;;;;;;;;;8.40;93.40;;;;;;5003915;28;19926;-69
2021/04/30 08:05:57;;;;;;;;;;;8.50;99.90;;;;;;5005310;28;19917;-69
2021/04/30 08:08:22;;;;;;;;;;;8.60;99.90;;;;;;5019662;28;19929;-69
2021/04/30 08:10:48;;;;;;;;;;;8.70;98.10;;;;;;5025053;28;19921;-69
2021/04/30 08:13:13;;;;;;;;;;;8.70;97.50;;;;;;5027270;28;19956;-69
2021/04/30 08:15:41;;;;;;;;;;;8.70;96.80;;;;;;5024692;28;20370;-69
2021/04/30 08:18:09;;;;;;;;;;;8.60;93.80;;;;;;5023264;28;19932;-69
2021/04/30 08:20:37;;;;;;;;;;;8.60;95.50;;;;;;5028013;28;19974;-69
2021/04/30 08:23:03;;;;;;;;;;;8.70;99.90;;;;;;5026312;28;19927;-69
2021/04/30 08:25:29;;;;;;;;;;;8.80;93.00;;;;;;5024068;28;19921;-70
2021/04/30 08:27:56;;;;;;;;;;;8.90;91.60;;;;;;5028245;28;19943;-70
2021/04/30 08:30:24;;;;;;;;;;;8.80;92.80;;;;;;5025327;28;20602;-69
2021/04/30 08:32:50;;;;;;;;;;;8.90;92.00;;;;;;5040240;28;19920;-69
2021/04/30 08:35:16;;;;;;;;;;;8.90;91.20;;;;;;5026066;28;19925;-69
2021/04/30 08:37:42;;;;;;;;;;;8.90;92.40;;;;;;5007376;28;20011;-70
2021/04/30 08:40:10;;;;;;;;;;;9.00;92.20;;;;;;5023418;28;19921;-70
2021/04/30 08:42:36;;;;;;;;;;;9.10;90.60;;;;;;5025068;28;20313;-69
2021/04/30 08:45:07;;;;;;;;;;;9.00;91.60;;;;;;5041476;28;19921;-69
2021/04/30 08:47:34;;;;;;;;;;;9.10;94.00;;;;;;5027302;28;19916;-70
2021/04/30 08:50:02;;;;;;;;;;;9.00;90.40;;;;;;5008358;28;19916;-70
2021/04/30 08:52:28;;;;;;;;;;;9.10;91.80;;;;;;5027194;28;21792;-69
2021/04/30 08:54:56;;;;;;;;;;;9.10;92.60;;;;;;5024032;28;19917;-70
2021/04/30 08:57:26;;;;;;;;;;;9.10;89.50;;;;;;5026203;28;19928;-70
2021/04/30 08:59:55;;;;;;;;;;;9.20;91.40;;;;;;5026201;28;20012;-69
2021/04/30 09:02:23;;;;;;;;;;;9.20;87.90;;;;;;5026996;28;19928;-69
2021/04/30 09:04:49;;;;;;;;;;;9.20;91.90;;;;;;5022507;28;19921;-69
2021/04/30 09:07:15;;;;;;;;;;;9.10;86.60;;;;;;5032237;28;19953;-70
2021/04/30 09:10:03;;;;;;;;;;;9.20;91.20;;;;;;5044493;28;19990;-70
2021/04/30 09:12:31;;;;;;;;;;;9.30;89.10;;;;;;5045934;28;20036;-69
2021/04/30 09:14:57;;;;;;;;;;;9.30;84.10;;;;;;5012289;28;19982;-69
2021/04/30 09:17:23;;;;;;;;;;;9.40;86.70;;;;;;5030057;28;19924;-69
2021/04/30 09:19:55;;;;;;;;;;;9.20;83.30;;;;;;5044785;28;20010;-70
2021/04/30 09:22:23;;;;;;;;;;;9.20;83.70;;;;;;5028140;28;19947;-70
2021/04/30 09:24:55;;;;;;;;;;;9.40;85.60;;;;;;5018681;28;19917;-70
2021/04/30 09:27:47;;;;;;;;;;;9.40;83.50;;;;;;5028084;28;19921;-70
2021/04/30 09:30:30;;;;;;;;;;;9.50;86.20;;;;;;5009635;28;19920;-70
2021/04/30 09:33:05;;;;;;;;;;;9.60;84.40;;;;;;5045999;28;19921;-70
2021/04/30 09:35:30;;;;;;;;;;;9.60;84.90;;;;;;5029892;28;19921;-70
2021/04/30 09:37:57;;;;;;;;;;;9.70;86.60;;;;;;5027657;28;19973;-70
2021/04/30 09:40:30;;;;;;;;;;;9.60;88.10;;;;;;5028013;28;19916;-70
2021/04/30 09:43:03;;;;;;;;;;;9.60;84.70;;;;;;5046372;28;20349;-70
2021/04/30 09:45:29;;;;;;;;;;;9.70;89.90;;;;;;5044363;28;20539;-70
2021/04/30 09:47:58;;;;;;;;;;;9.70;87.60;;;;;;5045046;28;19921;-70
2021/04/30 09:50:25;;;;;;;;;;;9.70;85.30;;;;;;5025365;28;19982;-70
2021/04/30 09:52:54;;;;;;;;;;;9.60;85.20;;;;;;5018341;28;20309;-70
2021/04/30 09:55:22;;;;;;;;;;;9.50;82.30;;;;;;5045344;28;20499;-70
2021/04/30 09:57:49;;;;;;;;;;;9.50;86.80;;;;;;5045445;28;19994;-70
2021/04/30 10:00:17;;;;;;;;;;;9.60;86.60;;;;;;5046542;28;20007;-70
2021/04/30 10:02:45;;;;;;;;;;;9.40;85.70;;;;;;5026596;28;19994;-71
2021/04/30 10:05:13;;;;;;;;;;;9.30;85.80;;;;;;5046861;28;20358;-71
2021/04/30 10:07:42;;;;;;;;;;;9.40;89.40;;;;;;5008981;28;19928;-71
2021/04/30 10:10:10;;;;;;;;;;;9.50;90.20;;;;;;5046214;28;19913;-70
2021/04/30 10:12:36;;;;;;;;;;;9.60;92.20;;;;;;5025268;28;20004;-71
2021/04/30 10:15:02;;;;;;;;;;;9.60;85.90;;;;;;5028382;28;19931;-71
2021/04/30 10:17:27;;;;;;;;;;;9.60;88.90;;;;;;5045824;28;19921;-71
2021/04/30 10:19:53;;;;;;;;;;;9.80;91.60;;;;;;5027689;28;19927;-71
2021/04/30 10:22:21;;;;;;;;;;;9.90;91.30;;;;;;5011453;28;19931;-71
2021/04/30 10:24:48;;;;;;;;;;;9.90;88.50;;;;;;5044976;28;20462;-70
2021/04/30 10:27:18;;;;;;;;;;;10.00;88.90;;;;;;5028449;28;19916;-71
2021/04/30 10:29:50;;;;;;;;;;;10.20;93.00;;;;;;5045494;28;19928;-70
2021/04/30 10:32:19;;;;;;;;;;;10.40;93.20;;;;;;5031378;28;19920;-70
2021/04/30 10:34:45;;;;;;;;;;;10.50;90.10;;;;;;5028438;28;19977;-71
2021/04/30 10:37:13;;;;;;;;;;;10.50;90.40;;;;;;5031570;28;20300;-70
2021/04/30 10:39:38;;;;;;;;;;;10.70;90.30;;;;;;5030966;28;20731;-70
2021/04/30 10:42:08;;;;;;;;;;;10.70;82.20;;;;;;5032272;28;19932;-70
2021/04/30 10:44:33;;;;;;;;;;;10.70;85.40;;;;;;5013053;28;19921;-71
2021/04/30 10:47:07;;;;;;;;;;;10.60;85.20;;;;;;5049350;28;19924;-70
2021/04/30 10:49:35;;;;;;;;;;;10.70;83.10;;;;;;5049148;28;19917;-70
2021/04/30 10:52:16;;;;;;;;;;;10.80;84.20;;;;;;5048858;28;19920;-71
2021/04/30 10:54:44;;;;;;;;;;;11.00;89.20;;;;;;5050008;28;19926;-71
2021/04/30 10:57:10;;;;;;;;;;;11.00;84.50;;;;;;5049600;28;20297;-70
2021/04/30 10:59:36;;;;;;;;;;;10.90;82.50;;;;;;5048798;28;19917;-71
2021/04/30 11:02:11;;;;;;;;;;;11.10;87.30;;;;;;5049117;28;20361;-71
2021/04/30 11:04:39;;;;;;;;;;;11.20;85.40;;;;;;4350644;28;10000773;-70
2021/04/30 11:07:08;;;;;;;;;;;11.20;84.50;;;;;;5046143;28;19929;-70
2021/04/30 11:09:35;;;;;;;;;;;11.20;83.60;;;;;;5021324;28;19921;-70
2021/04/30 11:12:06;;;;;;;;;;;11.30;83.00;;;;;;4667303;28;10000507;-70
2021/04/30 11:14:33;;;;;;;;;;;11.30;84.80;;;;;;5048980;28;19921;-70
2021/04/30 11:16:59;;;;;;;;;;;11.40;87.10;;;;;;5045931;28;19932;-71
2021/04/30 11:19:27;;;;;;;;;;;11.50;84.10;;;;;;5047230;28;20928;-70
2021/04/30 11:21:53;;;;;;;;;;;11.60;83.40;;;;;;5047024;28;19978;-70
2021/04/30 11:24:28;;;;;;;;;;;11.70;83.60;;;;;;5047370;28;20063;-70
2021/04/30 11:27:11;;;;;;;;;;;11.90;90.20;;;;;;5046526;28;19956;-70
2021/04/30 11:29:40;;;;;;;;;;;12.10;83.70;;;;;;5048291;28;20266;-70
2021/04/30 11:32:25;;;;;;;;;;;12.20;82.70;;;;;;5046450;28;19947;-70
2021/04/30 11:34:53;;;;;;;;;;;12.30;81.30;;;;;;5028884;28;19931;-70
2021/04/30 11:37:22;;;;;;;;;;;12.60;79.70;;;;;;5046537;28;20633;-70
2021/04/30 11:39:49;;;;;;;;;;;12.60;79.30;;;;;;5047075;28;19931;-70
2021/04/30 11:42:15;;;;;;;;;;;12.80;81.80;;;;;;5046784;28;19972;-70
2021/04/30 11:44:41;;;;;;;;;;;13.00;82.00;;;;;;5027343;28;20332;-70
2021/04/30 11:47:06;;;;;;;;;;;13.10;77.90;;;;;;5045295;28;19916;-70
2021/04/30 11:49:33;;;;;;;;;;;13.30;74.60;;;;;;5045989;28;19931;-70
2021/04/30 11:51:58;;;;;;;;;;;13.20;73.30;;;;;;5046937;28;19920;-70
2021/04/30 11:54:28;;;;;;;;;;;13.30;79.10;;;;;;5045892;28;19948;-70
2021/04/30 11:56:57;;;;;;;;;;;13.50;77.50;;;;;;4665250;28;10000606;-70
2021/04/30 11:59:23;;;;;;;;;;;13.60;74.80;;;;;;5019592;28;19920;-70
2021/04/30 12:01:58;;;;;;;;;;;13.70;70.50;;;;;;5032431;28;19982;-70
2021/04/30 12:04:35;;;;;;;;;;;13.70;73.20;;;;;;5046609;28;19931;-70
2021/04/30 12:07:01;;;;;;;;;;;13.70;72.10;;;;;;5045168;28;19975;-70
2021/04/30 12:09:30;;;;;;;;;;;13.30;70.40;;;;;;5027418;28;20342;-70
2021/04/30 12:12:11;;;;;;;;;;;13.20;71.40;;;;;;5044767;28;19928;-71
2021/04/30 12:14:42;;;;;;;;;;;13.20;75.60;;;;;;5026211;28;20337;-70
2021/04/30 12:17:18;;;;;;;;;;;13.20;73.80;;;;;;5047460;28;19925;-71
2021/04/30 12:20:03;;;;;;;;;;;13.00;72.20;;;;;;5047573;28;20384;-70
2021/04/30 12:22:31;;;;;;;;;;;13.10;76.50;;;;;;5049217;28;19960;-71
2021/04/30 12:25:19;;;;;;;;;;;13.30;77.00;;;;;;5047095;28;19947;-70
2021/04/30 12:27:44;;;;;;;;;;;13.30;76.30;;;;;;5047683;28;19931;-71
2021/04/30 12:30:10;;;;;;;;;;;13.10;70.70;;;;;;5046585;28;19916;-71
2021/04/30 12:32:36;;;;;;;;;;;13.00;73.60;;;;;;5045731;28;19944;-71
2021/04/30 12:35:01;;;;;;;;;;;13.10;73.90;;;;;;5047092;28;20024;-71
2021/04/30 12:37:27;;;;;;;;;;;13.20;76.50;;;;;;5046945;28;20346;-71
2021/04/30 12:39:52;;;;;;;;;;;12.40;70.80;;;;;;5047015;28;19928;-71
2021/04/30 12:42:18;;;;;;;;;;;12.50;74.70;;;;;;5047801;28;19921;-71
2021/04/30 12:44:51;;;;;;;;;;;12.60;76.00;;;;;;5028324;28;20019;-71
2021/04/30 12:47:17;;;;;;;;;;;12.50;76.30;;;;;;5029514;28;19917;-71
2021/04/30 12:49:42;;;;;;;;;;;12.20;73.10;;;;;;5047177;28;20374;-71
2021/04/30 12:52:08;;;;;;;;;;;12.40;79.00;;;;;;5045954;28;19921;-71
2021/04/30 12:54:34;;;;;;;;;;;12.50;78.60;;;;;;5029125;28;20436;-71
2021/04/30 12:57:08;;;;;;;;;;;12.50;79.00;;;;;;5045770;28;19924;-71
2021/04/30 12:59:34;;;;;;;;;;;12.70;79.10;;;;;;5046079;28;20464;-70
2021/04/30 13:02:08;;;;;;;;;;;12.60;79.30;;;;;;5045331;28;19951;-71
2021/04/30 13:04:40;;;;;;;;;;;12.70;80.10;;;;;;5046423;28;20286;-71
2021/04/30 13:07:05;;;;;;;;;;;12.70;76.70;;;;;;5029305;28;20019;-70
2021/04/30 13:09:33;;;;;;;;;;;12.70;77.30;;;;;;5046243;28;19917;-71
2021/04/30 13:12:02;;;;;;;;;;;12.80;80.00;;;;;;5046504;28;19999;-71
2021/04/30 13:14:39;;;;;;;;;;;12.80;74.00;;;;;;5025427;28;19921;-71
2021/04/30 13:17:15;;;;;;;;;;;12.60;76.30;;;;;;5045693;28;19924;-71
2021/04/30 13:19:43;;;;;;;;;;;12.70;79.40;;;;;;5046101;28;19916;-71
2021/04/30 13:22:18;;;;;;;;;;;12.70;81.40;;;;;;5027019;28;19920;-71
2021/04/30 13:24:46;;;;;;;;;;;12.80;79.90;;;;;;5043692;28;20280;-71
2021/04/30 13:27:18;;;;;;;;;;;12.50;76.10;;;;;;5045262;28;19916;-71
2021/04/30 13:29:47;;;;;;;;;;;12.50;80.00;;;;;;5027011;28;19921;-71
2021/04/30 13:32:16;;;;;;;;;;;12.50;80.70;;;;;;5044762;28;19978;-71
2021/04/30 13:34:46;;;;;;;;;;;12.40;79.00;;;;;;5045099;28;19923;-71
2021/04/30 13:37:15;;;;;;;;;;;12.50;82.50;;;;;;5045838;28;19932;-71
2021/04/30 13:39:41;;;;;;;;;;;12.30;76.70;;;;;;5045402;28;20506;-71
2021/04/30 13:42:11;;;;;;;;;;;12.20;79.90;;;;;;5026731;28;19924;-71
2021/04/30 13:44:36;;;;;;;;;;;12.30;81.50;;;;;;5043806;28;19928;-72
2021/04/30 13:47:02;;;;;;;;;;;12.40;79.50;;;;;;5025681;28;19917;-71
2021/04/30 13:49:46;;;;;;;;;;;12.20;79.50;;;;;;5045165;28;20787;-72
2021/04/30 13:52:11;;;;;;;;;;;12.30;80.00;;;;;;5044938;28;19920;-71
2021/04/30 13:54:37;;;;;;;;;;;12.20;78.30;;;;;;5043682;28;19921;-72
2021/04/30 13:57:03;;;;;;;;;;;12.30;78.80;;;;;;5025978;28;19932;-71
2021/04/30 13:59:36;;;;;;;;;;;12.30;82.50;;;;;;5026666;28;19974;-72
2021/04/30 14:02:02;;;;;;;;;;;12.20;82.10;;;;;;5027277;28;19920;-71
2021/04/30 14:04:27;;;;;;;;;;;12.30;83.90;;;;;;5008140;28;19921;-72
2021/04/30 14:06:53;;;;;;;;;;;12.50;82.90;;;;;;5046927;28;19931;-71
2021/04/30 14:09:19;;;;;;;;;;;12.60;82.00;;;;;;5012819;28;19920;-71
2021/04/30 14:11:47;;;;;;;;;;;12.60;81.00;;;;;;5048239;28;19921;-71
2021/04/30 14:14:12;;;;;;;;;;;12.80;82.70;;;;;;5029008;28;20289;-71
2021/04/30 14:16:38;;;;;;;;;;;12.70;77.60;;;;;;5029397;28;19979;-71
2021/04/30 14:19:03;;;;;;;;;;;12.70;83.10;;;;;;5030398;28;19920;-72
2021/04/30 14:21:31;;;;;;;;;;;12.70;80.50;;;;;;5048238;28;19917;-72
2021/04/30 14:23:59;;;;;;;;;;;12.70;79.70;;;;;;5047641;28;19924;-72
2021/04/30 14:26:27;;;;;;;;;;;12.80;80.50;;;;;;5048663;28;19920;-72